Clear Lake, IA (50428)

4:37 PM CDT on September 17, 2014 (GMT -0500)
South of Oak Hills Golf C. | Change Station
CLOSE
Current Station
Personal Weather Station
Location: Clear Lake, IA
Elevation: 1263 ft
Nearby Weather Stations

Elev 1263 ft 43.11 °N, 93.38 °W | Updated 3 seconds ago

Mostly Cloudy
Mostly Cloudy
76.6 °F
Feels Like 78 °F
N
1.0
Wind Variable Wind from ESE
Gusts 2.0 mph

Today
High -- | Low -- °F
--% Chance of Precip.
Yesterday
High -- | Low -- °F
Precip. -- in
6:55 AM 7:19 PM
Waning Crescent, 33% visible
Pressure 29.94 in
Visibility 10.0 miles
Clouds Mostly Cloudy 6000 ft
Heat Index 78 °F
Dew Point 54 °F
Humidity 46%
Rainfall 0.00 in
Snow Depth Not available.
UV 2 out of 12
Pollen 4.60 out of 12
Air Quality Not available.
Flu Activity Not available.
METAR KMCW 172053Z AUTO VRB04KT 10SM BKN060 23/11 A2996 RMK AO2 SLP137 T02330111 56007

More Conditions Fewer Conditions

Pressure 29.94 in
Visibility 10.0 miles
Clouds Mostly Cloudy 6000 ft
Heat Index 78 °F
Dew Point 54 °F
Humidity 46%
Rainfall 0.00 in
Snow Depth Not available.
UV 2 out of 12
Pollen 4.60 out of 12
Air Quality Not available.
Flu Activity Not available.
METAR KMCW 172053Z AUTO VRB04KT 10SM BKN060 23/11 A2996 RMK AO2 SLP137 T02330111 56007

More Conditions Fewer Conditions

10-Day Weather Forecast

Almanac

Astronomy

Sep. 17, 2014 Rise Set
Actual Time 6:55 AM CDT 7:19 PM CDT
Civil Twilight 6:26 AM CDT 7:48 PM CDT
Nautical Twilight 5:53 AM CDT 8:21 PM CDT
Astronomical Twilight 5:18 AM CDT 8:56 PM CDT
Moon 12:49 AM CDT 3:36 PM CDT
Length of Visible Light 13h 21m
Length of Day
12h 24m
Tomorrow will be 2m 55s shorter.
Waning Crescent, 33% of the Moon is Illuminated
Today
Waning Crescent
Sep 24
New
Oct 1
First Quarter
Oct 8
Full
Oct 15
Last Quarter

Today's Extremes

State Highs State Lows

Community

WunderPhotos

Upload Photos

1,754,170 photos uploaded!

Nearby

Snow Depth

Station Depth Elevation
No new snow has been reported.

Earthquake Activity

City Distance Mag. Time & Date
No recent earthquake activity has been reported nearby.
Minimum magnitude displayed is 2.5.

Coastal Water Temperatures

Place Temperature
No Stations Reporting

Nearby Weather Stations